Time;durP1;ratioP1;P1;durP2;ratioP2;P2;SDS_P1;SDS_P2;PMS_P1;PMS_P2;Temp;Humidity;BMP_temperature;BMP_pressure;BME280_temperature;BME280_humidity;BME280_pressure;Samples;Min_cycle;Max_cycle;Signal;HPM_P1;HPM_P2
2021/11/30 00:02:17;;;;;;;15.38;6.45;;;;;;;3.72;100.00;99011.19;4993405;28;20044;-66
2021/11/30 00:05:01;;;;;;;12.75;6.10;;;;;;;3.72;100.00;99001.78;4993712;28;20109;-66
2021/11/30 00:07:45;;;;;;;;;;;;;;;3.79;100.00;98986.88;4994603;28;20052;-66
2021/11/30 00:10:45;;;;;;;15.98;8.95;;;;;;;3.83;100.00;98983.19;5007231;28;19988;-66
2021/11/30 00:13:30;;;;;;;14.60;7.65;;;;;;;3.84;100.00;98988.22;4993233;28;20607;-66
2021/11/30 00:16:16;;;;;;;9.90;5.05;;;;;;;3.84;100.00;99010.47;4993511;28;20073;-66
2021/11/30 00:18:59;;;;;;;12.00;7.25;;;;;;;3.87;100.00;98994.91;4994137;28;20526;-66
2021/11/30 00:21:43;;;;;;;;;;;;;;;3.86;100.00;98993.28;4994634;28;20138;-66
2021/11/30 00:24:29;;;;;;;13.55;7.45;;;;;;;3.90;100.00;99016.03;5006848;28;19981;-66
2021/11/30 00:27:14;;;;;;;9.55;5.50;;;;;;;3.91;100.00;99011.72;4993252;28;20149;-66
2021/11/30 00:29:58;;;;;;;10.57;7.68;;;;;;;3.97;100.00;99024.16;4993036;28;20462;-66
2021/11/30 00:32:42;;;;;;;;;;;;;;;4.02;100.00;99020.41;4994023;28;20467;-66
2021/11/30 00:35:26;;;;;;;15.90;8.35;;;;;;;4.04;100.00;99013.44;4993442;28;19920;-66
2021/11/30 00:38:13;;;;;;;9.50;5.70;;;;;;;4.01;100.00;99023.03;4992909;28;20092;-66
2021/11/30 00:40:57;;;;;;;9.82;5.15;;;;;;;4.01;100.00;99043.53;4992813;28;20057;-66
2021/11/30 00:43:41;;;;;;;14.63;7.70;;;;;;;4.04;100.00;99035.69;4992509;28;20057;-66
2021/11/30 00:46:35;;;;;;;;;;;;;;;4.06;100.00;99026.97;4992907;28;20049;-66
2021/11/30 00:49:20;;;;;;;14.27;8.20;;;;;;;4.07;100.00;99030.34;5005360;28;19964;-66
2021/11/30 00:52:04;;;;;;;17.63;7.68;;;;;;;4.03;100.00;99014.34;4992627;28;20432;-66
2021/11/30 00:54:49;;;;;;;;;;;;;;;4.07;100.00;99027.78;4992778;28;20081;-66
2021/11/30 00:57:39;;;;;;;10.20;5.85;;;;;;;4.05;100.00;99027.06;4992825;28;19920;-66
2021/11/30 01:00:23;;;;;;;11.23;6.75;;;;;;;4.11;100.00;99027.50;4979601;28;20521;-66
2021/11/30 01:03:07;;;;;;;13.48;6.65;;;;;;;4.12;100.00;99030.88;4992534;28;20084;-67
2021/11/30 01:05:51;;;;;;;12.98;7.70;;;;;;;4.10;100.00;99030.16;4992246;28;20364;-66
2021/11/30 01:08:35;;;;;;;15.52;7.55;;;;;;;4.13;100.00;99033.34;4992533;28;20092;-66
2021/11/30 01:11:19;;;;;;;16.13;5.07;;;;;;;4.08;100.00;99048.16;4978963;28;20421;-66
2021/11/30 01:14:04;;;;;;;13.63;6.43;;;;;;;4.10;100.00;99037.84;4992140;28;20080;-66
2021/11/30 01:16:48;;;;;;;13.55;7.45;;;;;;;4.16;100.00;99037.47;4992190;28;20058;-66
2021/11/30 01:19:32;;;;;;;;;;;;;;;4.19;100.00;99043.22;4992623;28;20139;-66
2021/11/30 01:22:16;;;;;;;18.35;6.90;;;;;;;4.11;100.00;99045.44;4992475;28;20351;-67
2021/11/30 01:25:00;;;;;;;;;;;;;;;4.08;100.00;99042.25;4992640;28;20464;-66
2021/11/30 01:27:46;;;;;;;10.63;6.30;;;;;;;4.00;100.00;99047.00;4992353;28;20279;-66
2021/11/30 01:30:31;;;;;;;14.55;6.95;;;;;;;4.04;100.00;99044.16;4992146;28;20291;-66
2021/11/30 01:33:14;;;;;;;25.13;8.90;;;;;;;4.04;100.00;99058.72;4978332;28;20127;-66
2021/11/30 01:35:58;;;;;;;;;;;;;;;4.09;100.00;99062.66;4992413;28;20081;-66
2021/11/30 01:38:42;;;;;;;7.07;4.50;;;;;;;4.00;100.00;99073.47;5005792;28;20085;-66
2021/11/30 01:41:27;;;;;;;9.77;6.18;;;;;;;4.05;100.00;99057.81;4992210;28;20463;-66
2021/11/30 01:44:27;;;;;;;6.90;3.90;;;;;;;4.03;100.00;99057.88;4978793;28;20049;-66
2021/11/30 01:50:11;;;;;;;9.98;4.85;;;;;;;4.06;100.00;99056.88;4997089;28;20498;-66
2021/11/30 01:52:55;;;;;;;11.35;5.90;;;;;;;4.03;100.00;99051.94;4995871;28;20056;-66
2021/11/30 01:55:39;;;;;;;10.00;4.97;;;;;;;4.03;100.00;99046.81;4995827;28;20360;-66
2021/11/30 01:58:23;;;;;;;10.05;5.82;;;;;;;4.11;100.00;99050.56;4996880;28;20057;-66
2021/11/30 02:01:07;;;;;;;12.55;6.53;;;;;;;4.05;100.00;99045.00;4995812;28;20515;-67
2021/11/30 02:03:51;;;;;;;8.50;4.30;;;;;;;4.06;100.00;99052.56;4995732;28;20383;-66
2021/11/30 02:06:35;;;;;;;;;;;;;;;4.12;100.00;99047.09;4997080;28;20108;-67
2021/11/30 02:09:19;;;;;;;14.57;5.77;;;;;;;4.13;100.00;99038.47;5009524;28;19948;-66
2021/11/30 02:12:04;;;;;;;11.35;4.93;;;;;;;4.09;100.00;99039.59;4995450;28;20263;-66
2021/11/30 02:14:50;;;;;;;10.48;5.00;;;;;;;4.11;100.00;99039.47;4981505;28;20049;-66
2021/11/30 02:17:35;;;;;;;10.70;6.00;;;;;;;4.14;100.00;99034.16;4996522;28;20108;-66
2021/11/30 02:20:19;;;;;;;10.05;5.82;;;;;;;4.19;100.00;99032.97;4995248;28;20084;-67
2021/11/30 02:23:05;;;;;;;9.45;5.40;;;;;;;4.13;100.00;99033.34;4995185;28;20057;-66
2021/11/30 02:25:49;;;;;;;9.68;4.75;;;;;;;4.09;100.00;99031.06;4995335;28;20065;-66
2021/11/30 02:28:33;;;;;;;10.65;6.00;;;;;;;4.16;99.92;99033.16;4996362;28;20097;-66
2021/11/30 02:31:21;;;;;;;9.85;4.15;;;;;;;4.16;100.00;99028.03;4996060;28;20053;-66
2021/11/30 02:34:05;;;;;;;10.15;6.28;;;;;;;4.16;100.00;99052.84;5017484;23;20585;-67
2021/11/30 02:36:52;;;;;;;10.95;4.78;;;;;;;4.14;99.71;99045.25;4996308;28;20435;-68
2021/11/30 02:39:37;;;;;;;14.57;6.78;;;;;;;4.21;99.28;99041.38;4996457;28;20467;-67
2021/11/30 02:42:21;;;;;;;10.38;5.72;;;;;;;4.18;97.69;99043.31;4995161;28;20053;-68
2021/11/30 02:45:05;;;;;;;6.50;4.20;;;;;;;4.21;97.95;99048.25;4996033;28;20049;-68
2021/11/30 02:47:49;;;;;;;12.00;6.78;;;;;;;4.33;97.02;99042.34;4994795;28;20085;-68
2021/11/30 02:50:41;;;;;;;12.98;4.60;;;;;;;4.29;96.18;99043.47;4996349;28;20049;-68
2021/11/30 02:53:25;;;;;;;9.88;4.32;;;;;;;4.23;96.77;99046.41;4995906;28;20510;-67
2021/11/30 02:56:09;;;;;;;13.38;5.80;;;;;;;4.33;96.28;99050.03;4995646;28;20053;-68
2021/11/30 02:58:54;;;;;;;14.50;6.30;;;;;;;4.29;96.08;99048.59;4994252;28;20558;-68
2021/11/30 03:01:41;;;;;;;7.15;5.18;;;;;;;4.29;96.45;99048.59;4995909;28;20130;-68
2021/11/30 03:04:26;;;;;;;10.95;6.97;;;;;;;4.31;95.35;99042.47;4994607;28;20069;-69
2021/11/30 03:07:11;;;;;;;7.50;5.60;;;;;;;4.26;95.94;99033.41;4994847;28;20037;-66
2021/11/30 03:09:56;;;;;;;9.68;5.93;;;;;;;4.27;95.85;99035.06;4995675;28;20599;-69
2021/11/30 03:12:40;;;;;;;11.77;5.85;;;;;;;4.31;96.04;99036.50;4980928;28;20112;-68
2021/11/30 03:15:25;;;;;;;9.40;3.35;;;;;;;4.24;95.89;99040.34;4995880;28;20077;-69
2021/11/30 03:18:09;;;;;;;8.18;4.63;;;;;;;4.24;95.59;99035.22;4980701;28;20053;-66
2021/11/30 03:20:53;;;;;;;;;;;;;;;4.22;94.85;99057.56;4994916;28;20100;-66
2021/11/30 03:23:37;;;;;;;9.20;5.68;;;;;;;4.25;95.10;99030.03;4995327;28;19948;-67
2021/11/30 03:26:21;;;;;;;7.28;4.50;;;;;;;4.16;95.69;99055.41;4994221;28;20046;-67
2021/11/30 03:29:05;;;;;;;8.45;5.47;;;;;;;4.15;95.58;99023.03;4995603;28;20089;-69
2021/11/30 03:31:52;;;;;;;12.27;4.50;;;;;;;4.19;95.74;99027.03;4994165;28;20066;-68
2021/11/30 03:34:36;;;;;;;9.65;4.70;;;;;;;4.23;95.58;99013.09;4993697;28;20539;-68
2021/11/30 03:37:19;;;;;;;;;;;;;;;4.29;95.63;99010.97;4980834;28;20068;-66
2021/11/30 03:40:05;;;;;;;13.13;6.17;;;;;;;4.25;95.75;99006.97;4995018;28;20015;-69
2021/11/30 03:42:48;;;;;;;14.23;6.13;;;;;;;4.26;95.94;99007.81;4993798;28;20306;-67
2021/11/30 03:45:32;;;;;;;11.13;5.70;;;;;;;4.24;95.82;99005.31;4980253;28;20120;-68
2021/11/30 03:48:16;;;;;;;;;;;;;;;4.31;95.92;99010.88;4994283;28;20064;-66
2021/11/30 03:51:00;;;;;;;10.50;5.60;;;;;;;4.30;95.36;98993.88;4979839;28;20342;-67
2021/11/30 03:53:45;;;;;;;9.07;6.20;;;;;;;4.28;95.13;98995.72;4979895;28;20761;-68
2021/11/30 03:56:28;;;;;;;6.85;4.07;;;;;;;4.23;95.90;98985.75;4994996;28;20069;-67
2021/11/30 03:59:13;;;;;;;6.20;3.40;;;;;;;4.22;95.83;98989.22;4993722;28;20499;-66
2021/11/30 04:01:57;;;;;;;11.25;3.55;;;;;;;4.20;95.77;98982.56;4994369;28;20057;-67
2021/11/30 04:04:43;;;;;;;8.65;5.32;;;;;;;4.33;95.61;98975.72;4994292;28;20065;-67
2021/11/30 04:07:27;;;;;;;8.20;4.82;;;;;;;4.24;95.04;98977.13;4993801;28;20108;-66
2021/11/30 04:10:11;;;;;;;7.60;3.50;;;;;;;4.18;95.09;98984.41;4993302;28;20045;-68
2021/11/30 04:12:55;;;;;;;6.78;4.82;;;;;;;4.19;95.26;98965.53;4979766;28;20130;-68
2021/11/30 04:15:39;;;;;;;5.30;3.35;;;;;;;4.19;94.48;98955.28;4994210;28;20048;-68
2021/11/30 04:18:24;;;;;;;5.90;3.88;;;;;;;4.18;93.81;98969.03;4993646;28;20104;-68
2021/11/30 04:21:08;;;;;;;7.18;3.88;;;;;;;4.23;93.58;98965.25;4993351;28;20110;-69
2021/11/30 04:23:53;;;;;;;6.32;3.25;;;;;;;4.19;92.95;98961.25;4979354;28;20049;-68
2021/11/30 04:26:37;;;;;;;3.92;2.88;;;;;;;4.24;92.53;98958.38;4992916;28;20112;-68
2021/11/30 04:29:21;;;;;;;;;;;;;;;4.27;92.20;98968.44;4979800;28;20049;-67
2021/11/30 04:32:06;;;;;;;4.57;3.03;;;;;;;4.21;92.33;98979.06;4993171;28;19921;-66
2021/11/30 04:34:50;;;;;;;4.55;3.05;;;;;;;4.16;92.05;98968.31;4992949;28;20109;-67
2021/11/30 04:37:33;;;;;;;;;;;;;;;4.22;91.55;98966.19;4993314;28;20141;-66
2021/11/30 04:40:17;;;;;;;4.57;3.40;;;;;;;4.25;91.76;98950.59;4993055;28;19925;-65
2021/11/30 04:43:01;;;;;;;6.30;2.85;;;;;;;4.22;91.31;98955.09;4992614;28;20088;-68
2021/11/30 04:48:32;;;;;;;6.03;3.50;;;;;;;4.24;91.46;98932.75;4993123;28;20065;-68
2021/11/30 04:51:17;;;;;;;5.95;3.15;;;;;;;4.30;91.18;98942.63;4993101;28;20479;-67
2021/11/30 04:54:00;;;;;;;4.60;2.95;;;;;;;4.23;91.50;98939.63;4992649;28;20412;-66
2021/11/30 04:56:44;;;;;;;5.88;2.05;;;;;;;4.17;91.09;98959.69;4992759;28;20101;-67
2021/11/30 04:59:28;;;;;;;4.43;2.67;;;;;;;4.08;92.66;98937.22;4992793;28;20049;-69
2021/11/30 05:02:13;;;;;;;5.70;2.53;;;;;;;3.99;94.40;98927.56;4992987;28;20069;-67
2021/11/30 05:04:57;;;;;;;5.05;2.35;;;;;;;3.87;96.31;98923.22;4992320;28;20515;-67
2021/11/30 05:07:41;;;;;;;6.60;3.50;;;;;;;3.86;99.10;98919.03;4993399;28;20080;-67
2021/11/30 05:10:25;;;;;;;7.18;4.20;;;;;;;3.76;99.42;98921.31;4993433;28;20100;-68
2021/11/30 05:13:09;;;;;;;4.32;2.92;;;;;;;3.66;99.03;98933.03;4992625;28;20085;-67
2021/11/30 05:15:53;;;;;;;6.68;2.63;;;;;;;3.66;99.27;98927.13;4992484;28;20069;-68
2021/11/30 05:18:39;;;;;;;5.35;3.60;;;;;;;3.71;100.00;98902.03;4993439;28;20434;-66
2021/11/30 05:21:25;;;;;;;6.38;3.92;;;;;;;3.68;100.00;98887.72;4978514;28;20069;-67
2021/11/30 05:24:10;;;;;;;5.72;2.53;;;;;;;3.62;100.00;98882.13;4978797;28;20096;-68
2021/11/30 05:26:56;;;;;;;6.88;3.30;;;;;;;3.58;100.00;98883.25;4992361;28;20049;-67
2021/11/30 05:29:40;;;;;;;7.20;3.33;;;;;;;3.56;100.00;98888.47;4992031;28;20077;-67
2021/11/30 05:32:24;;;;;;;8.23;4.70;;;;;;;3.63;100.00;98883.78;4991985;28;20152;-68
2021/11/30 05:35:09;;;;;;;6.95;3.50;;;;;;;3.60;100.00;98879.69;4992486;28;20092;-63
2021/11/30 05:37:53;;;;;;;5.38;3.65;;;;;;;3.51;100.00;98879.44;4978662;28;20133;-65
2021/11/30 05:40:40;;;;;;;6.28;3.60;;;;;;;3.50;100.00;98870.94;4993324;28;20057;-65
2021/11/30 05:43:24;;;;;;;7.32;3.05;;;;;;;3.45;100.00;98875.50;4993208;28;20068;-65
2021/11/30 05:46:08;;;;;;;7.65;3.35;;;;;;;3.36;100.00;98867.59;4992116;28;20459;-66
2021/11/30 05:48:52;;;;;;;6.55;3.90;;;;;;;3.33;100.00;98867.78;4992297;28;20053;-66
2021/11/30 05:51:36;;;;;;;6.82;3.25;;;;;;;3.20;100.00;98879.69;4992695;28;20157;-67
2021/11/30 05:54:20;;;;;;;6.18;3.45;;;;;;;3.13;100.00;98879.22;4993901;28;20125;-66
2021/11/30 05:57:11;;;;;;;14.00;6.13;;;;;;;3.08;100.00;98870.19;4992314;28;20091;-68
2021/11/30 05:59:57;;;;;;;5.65;2.92;;;;;;;2.93;100.00;98878.81;4993187;28;20045;-66
2021/11/30 06:03:07;;;;;;;11.07;6.97;;;;;;;2.93;100.00;98859.16;4993073;28;20089;-66
2021/11/30 06:05:47;;;;;;;10.18;4.90;;;;;;;2.91;100.00;98863.53;4992279;28;20550;-66
2021/11/30 06:08:31;;;;;;;10.90;5.50;;;;;;;2.86;100.00;98854.50;4991942;28;20483;-65
2021/11/30 06:11:16;;;;;;;15.05;7.57;;;;;;;2.86;100.00;98849.41;4993214;28;20178;-67
2021/11/30 06:14:01;;;;;;;9.50;5.00;;;;;;;2.69;100.00;98872.56;4992807;28;20080;-66
2021/11/30 06:16:45;;;;;;;9.10;3.95;;;;;;;2.67;100.00;98879.50;4991593;28;20558;-67
2021/11/30 06:19:29;;;;;;;;;;;;;;;2.62;100.00;98869.56;4992293;28;20053;-66
2021/11/30 06:22:13;;;;;;;8.30;4.57;;;;;;;2.52;100.00;98858.25;4992783;28;20505;-66
2021/11/30 06:24:56;;;;;;;;;;;;;;;2.58;100.00;98844.28;4993390;28;20173;-63
2021/11/30 06:27:41;;;;;;;15.73;6.70;;;;;;;2.49;100.00;98852.47;4991912;28;19980;-66
2021/11/30 06:30:25;;;;;;;12.93;7.13;;;;;;;2.46;100.00;98857.78;4992141;28;20120;-65
2021/11/30 06:33:09;;;;;;;;;;;;;;;2.39;100.00;98838.59;4980293;28;20048;-65
2021/11/30 06:35:53;;;;;;;15.38;8.85;;;;;;;2.40;100.00;98824.91;4996196;28;20016;-65
2021/11/30 06:38:37;;;;;;;8.48;4.85;;;;;;;2.29;100.00;98868.16;4994944;28;20126;-67
2021/11/30 06:41:20;;;;;;;;;;;;;;;2.19;100.00;98825.38;4995677;28;20065;-64
2021/11/30 06:44:05;;;;;;;10.85;4.75;;;;;;;2.09;100.00;98824.25;4996033;28;19936;-64
2021/11/30 06:46:50;;;;;;;13.38;7.97;;;;;;;2.12;100.00;98824.91;4996097;28;20070;-63
2021/11/30 06:49:34;;;;;;;16.83;8.48;;;;;;;2.12;100.00;98835.13;4995995;28;20061;-64
2021/11/30 06:52:18;;;;;;;13.32;7.97;;;;;;;2.12;100.00;98818.97;4996124;28;20108;-64
2021/11/30 06:55:02;;;;;;;15.10;8.93;;;;;;;2.16;100.00;98836.56;4996088;28;20582;-66
2021/11/30 06:57:46;;;;;;;;;;;;;;;2.20;100.00;98829.56;4995040;28;20045;-63
2021/11/30 07:00:29;;;;;;;8.52;5.60;;;;;;;2.14;100.00;98851.16;4994711;28;19961;-64
2021/11/30 07:03:13;;;;;;;11.65;7.43;;;;;;;2.18;100.00;98799.00;4996160;28;20052;-66
2021/11/30 07:06:02;;;;;;;15.45;6.78;;;;;;;2.20;100.00;98802.31;4994456;28;20073;-65
2021/11/30 07:08:54;;;;;;;15.63;7.93;;;;;;;2.12;100.00;98796.81;4995642;28;20073;-66
2021/11/30 07:14:22;;;;;;;12.70;6.78;;;;;;;2.24;100.00;98813.97;4994428;28;20049;-66
2021/11/30 07:17:06;;;;;;;12.02;6.78;;;;;;;2.28;100.00;98783.97;4980717;28;20132;-65
2021/11/30 07:19:50;;;;;;;10.73;6.75;;;;;;;2.20;100.00;98804.03;4995593;28;20057;-65
2021/11/30 07:22:35;;;;;;;;;;;;;;;2.21;100.00;98814.16;4994601;28;20056;-65
2021/11/30 07:25:19;;;;;;;9.45;4.78;;;;;;;2.17;100.00;98799.09;4995242;28;20007;-65
2021/11/30 07:28:03;;;;;;;;;;;;;;;2.20;100.00;98821.91;4994555;28;20053;-65
2021/11/30 07:30:46;;;;;;;14.07;8.03;;;;;;;2.22;100.00;98782.59;4980398;28;20390;-65
2021/11/30 07:33:36;;;;;;;;;;;;;;;2.18;100.00;98781.13;4995105;28;20792;-65
2021/11/30 07:36:20;;;;;;;14.85;8.32;;;;;;;2.15;100.00;98785.56;4980879;28;19968;-65
2021/11/30 07:39:05;;;;;;;;;;;;;;;2.13;100.00;98834.19;4995514;28;20420;-63
2021/11/30 07:41:49;;;;;;;10.23;5.50;;;;;;;2.08;100.00;98786.88;4993891;28;20013;-64
2021/11/30 07:44:33;;;;;;;15.15;5.28;;;;;;;2.09;100.00;98789.31;4994492;28;20048;-64
2021/11/30 07:47:17;;;;;;;;;;;;;;;2.15;100.00;98796.63;4993975;28;20412;-63
2021/11/30 07:50:01;;;;;;;9.15;5.32;;;;;;;2.15;100.00;98793.25;4994781;28;19921;-65
2021/11/30 07:52:45;;;;;;;;;;;;;;;2.20;100.00;98776.78;4995351;28;20053;-64
2021/11/30 07:55:30;;;;;;;12.25;5.95;;;;;;;2.05;100.00;98803.19;4993797;28;20027;-64
2021/11/30 07:58:14;;;;;;;13.98;7.32;;;;;;;2.08;100.00;98802.19;4994478;28;20145;-65
2021/11/30 08:00:58;;;;;;;;;;;;;;;2.12;100.00;98789.16;4994987;28;20053;-63
2021/11/30 08:03:43;;;;;;;15.10;8.98;;;;;;;2.14;100.00;98782.22;4979737;28;19920;-66
2021/11/30 08:06:27;;;;;;;10.93;6.47;;;;;;;2.09;100.00;98779.09;4993312;28;20120;-63
2021/11/30 08:09:12;;;;;;;;;;;;;;;2.12;100.00;98799.38;4994118;28;20510;-65
2021/11/30 08:11:56;;;;;;;14.73;6.15;;;;;;;2.14;100.00;98772.00;4994415;28;20406;-65
2021/11/30 08:14:39;;;;;;;;;;;;;;;2.20;100.00;98761.44;4979715;28;20089;-66
2021/11/30 08:17:23;;;;;;;12.25;6.57;;;;;;;2.21;100.00;98762.25;4979861;28;20011;-65
2021/11/30 08:20:08;;;;;;;;;;;;;;;2.23;100.00;98763.81;4994751;28;20456;-63
2021/11/30 08:22:52;;;;;;;19.33;8.95;;;;;;;2.19;100.00;98770.00;4992865;28;19922;-63
2021/11/30 08:25:36;;;;;;;;;;;;;;;2.32;100.00;98759.88;4994516;28;20138;-64
2021/11/30 08:28:20;;;;;;;14.03;8.47;;;;;;;2.39;100.00;98769.63;4994190;28;19947;-64
2021/11/30 08:31:04;;;;;;;12.23;6.65;;;;;;;2.37;100.00;98778.31;4993055;28;20344;-65
2021/11/30 08:36:39;;;;;;;11.93;6.65;;;;;;;2.44;100.00;98758.22;4916238;29;20140;-68
2021/11/30 08:39:22;;;;;;;;;;;;;;;2.48;100.00;98771.66;4929997;29;20054;-68
2021/11/30 08:42:10;;;;;;;14.90;6.93;;;;;;;2.42;100.00;98758.41;4929438;29;19922;-68
2021/11/30 08:44:54;;;;;;;10.93;5.72;;;;;;;2.40;100.00;98778.94;4917178;29;20143;-68
2021/11/30 08:47:39;;;;;;;16.00;9.38;;;;;;;2.45;100.00;98743.75;4916388;29;20075;-68
2021/11/30 08:50:23;;;;;;;12.55;7.22;;;;;;;2.46;100.00;98747.94;4916023;29;20055;-69
2021/11/30 08:53:08;;;;;;;16.00;8.73;;;;;;;2.51;100.00;78259.78;4916147;29;20059;-69
2021/11/30 08:55:52;;;;;;;;;;;;;;;2.47;100.00;98752.97;4915299;29;20055;-69
2021/11/30 08:58:35;;;;;;;15.60;9.20;;;;;;;2.46;100.00;98782.88;4915929;29;19941;-69
2021/11/30 09:01:20;;;;;;;9.73;5.68;;;;;;;2.47;100.00;98760.63;4916932;29;20059;-69
2021/11/30 09:04:04;;;;;;;14.38;7.55;;;;;;;2.45;100.00;98766.72;4915657;29;20059;-69
2021/11/30 09:06:47;;;;;;;;;;;;;;;2.49;100.00;98798.84;4916274;29;20509;-68
2021/11/30 09:09:32;;;;;;;11.15;7.03;;;;;;;2.54;100.00;98755.97;4915915;29;20493;-68
2021/11/30 09:12:17;;;;;;;19.23;9.90;;;;;;;2.63;100.00;98770.75;4902347;29;20152;-69
2021/11/30 09:15:03;;;;;;;14.40;7.60;;;;;;;2.57;100.00;98760.88;4915546;29;20099;-68
2021/11/30 09:17:53;;;;;;;14.98;9.02;;;;;;;2.57;100.00;98761.72;4915581;29;20470;-69
2021/11/30 09:20:37;;;;;;;10.73;6.20;;;;;;;2.60;100.00;98766.63;4916907;29;20055;-69
2021/11/30 09:23:22;;;;;;;9.50;4.50;;;;;;;2.59;100.00;98731.78;4901995;29;20138;-69
2021/11/30 09:26:06;;;;;;;12.13;7.65;;;;;;;2.63;100.00;98742.63;4915580;29;20131;-69
2021/11/30 09:28:50;;;;;;;11.07;5.43;;;;;;;2.61;100.00;98744.47;4916642;29;20075;-69
2021/11/30 09:31:35;;;;;;;9.57;5.22;;;;;;;2.66;100.00;98734.78;4916304;29;20470;-70
2021/11/30 09:34:19;;;;;;;;;;;;;;;2.74;100.00;98732.56;4915757;29;20099;-69
2021/11/30 09:37:04;;;;;;;9.48;5.15;;;;;;;2.71;100.00;98722.53;4915468;29;19925;-68
2021/11/30 09:39:48;;;;;;;8.43;5.72;;;;;;;2.71;100.00;98727.66;4915673;29;20493;-69
2021/11/30 09:42:32;;;;;;;10.82;6.65;;;;;;;2.73;100.00;98741.97;4915243;29;20569;-69
2021/11/30 09:45:17;;;;;;;9.98;7.10;;;;;;;2.64;100.00;98745.06;4915396;29;20505;-69
2021/11/30 09:48:01;;;;;;;14.90;6.32;;;;;;;2.73;100.00;98725.81;4916350;29;20132;-69
2021/11/30 09:50:45;;;;;;;9.52;5.35;;;;;;;2.71;100.00;98727.66;4916318;29;20131;-69
2021/11/30 09:53:29;;;;;;;10.43;5.20;;;;;;;2.82;100.00;98715.03;4915065;29;20055;-68
2021/11/30 09:56:14;;;;;;;13.15;6.32;;;;;;;2.82;100.00;98708.16;4916049;29;20051;-69
2021/11/30 09:58:58;;;;;;;7.95;4.82;;;;;;;2.79;100.00;98694.75;4915033;29;20051;-69
2021/11/30 10:01:41;;;;;;;10.57;4.90;;;;;;;2.75;100.00;98739.31;4915201;29;20103;-69
2021/11/30 10:04:25;;;;;;;;;;;;;;;2.85;100.00;98704.59;4915655;29;20051;-69
2021/11/30 10:07:09;;;;;;;6.75;3.90;;;;;;;2.81;100.00;98690.34;4917257;29;19922;-68
2021/11/30 10:10:15;;;;;;;9.60;6.15;;;;;;;2.93;100.00;98702.41;4918995;29;20047;-69
2021/11/30 10:12:59;;;;;;;10.10;5.05;;;;;;;2.90;100.00;98712.78;4918615;29;20054;-69
2021/11/30 10:15:46;;;;;;;;;;;;;;;2.95;100.00;98677.56;4919792;29;20103;-67
2021/11/30 10:18:30;;;;;;;12.18;5.88;;;;;;;2.89;100.00;98695.81;4919411;29;19926;-69
2021/11/30 10:21:22;;;;;;;;;;;;;;;2.97;100.00;98686.78;4920313;29;20063;-66
2021/11/30 10:24:06;;;;;;;8.80;5.15;;;;;;;2.94;100.00;98688.69;4918591;29;19946;-68
2021/11/30 10:26:54;;;;;;;6.57;3.83;;;;;;;3.01;100.00;98684.81;4905053;29;20051;-69
2021/11/30 10:29:41;;;;;;;9.18;5.47;;;;;;;3.06;100.00;98693.03;4905098;29;20062;-69
2021/11/30 10:32:35;;;;;;;7.43;4.05;;;;;;;3.12;100.00;98713.13;4919535;29;20134;-68
2021/11/30 10:35:26;;;;;;;8.23;3.88;;;;;;;3.18;100.00;98687.13;4918044;29;20047;-69
2021/11/30 10:38:10;;;;;;;7.13;4.80;;;;;;;3.14;100.00;98744.53;4918345;29;20422;-69
2021/11/30 10:40:54;;;;;;;;;;;;;;;3.15;100.00;98700.94;4918725;29;20486;-69
2021/11/30 10:44:00;;;;;;;3.75;2.63;;;;;;;3.17;100.00;98700.84;4918324;29;20387;-68
2021/11/30 10:46:44;;;;;;;10.65;4.72;;;;;;;3.14;100.00;98699.28;4918177;29;20055;-70
2021/11/30 10:49:28;;;;;;;7.18;4.32;;;;;;;3.12;100.00;98700.31;4918257;29;20055;-67
2021/11/30 10:52:21;;;;;;;9.05;5.25;;;;;;;3.25;100.00;98660.25;4918266;29;20103;-69
2021/11/30 10:55:12;;;;;;;9.07;5.70;;;;;;;3.30;100.00;98676.09;4917762;29;20076;-69
2021/11/30 10:58:00;;;;;;;6.07;3.60;;;;;;;3.25;100.00;98673.03;4918052;29;20116;-69
2021/11/30 11:00:45;;;;;;;9.43;5.28;;;;;;;3.33;100.00;98665.69;4917798;29;20064;-68
2021/11/30 11:03:29;;;;;;;9.70;4.80;;;;;;;3.30;100.00;98656.47;4917907;29;20051;-66
2021/11/30 11:06:28;;;;;;;;;;;;;;;3.29;100.00;98667.63;4918302;29;20079;-69
2021/11/30 11:09:12;;;;;;;6.65;3.03;;;;;;;3.25;100.00;98675.59;4918051;29;19921;-68
2021/11/30 11:12:01;;;;;;;;;;;;;;;3.17;100.00;98695.72;4917997;29;20058;-67
2021/11/30 11:14:47;;;;;;;5.50;3.08;;;;;;;3.10;100.00;98687.63;4904396;29;19922;-68
2021/11/30 11:17:32;;;;;;;6.90;4.78;;;;;;;3.09;100.00;98693.66;4917227;29;20039;-69
2021/11/30 11:20:20;;;;;;;3.67;2.70;;;;;;;3.09;100.00;98692.81;4917422;29;20082;-69
2021/11/30 11:23:04;;;;;;;5.22;2.55;;;;;;;3.04;100.00;98689.75;4917659;29;20119;-67
2021/11/30 11:25:48;;;;;;;5.35;3.40;;;;;;;3.05;100.00;98701.63;4917668;29;20050;-67
2021/11/30 11:28:32;;;;;;;10.32;5.50;;;;;;;3.20;100.00;98672.50;4917654;29;20087;-67
2021/11/30 11:31:16;;;;;;;10.63;3.50;;;;;;;3.07;100.00;98705.72;4917433;29;20060;-69
2021/11/30 11:34:01;;;;;;;7.60;3.53;;;;;;;3.09;100.00;98703.88;4917206;29;20131;-67
2021/11/30 11:36:46;;;;;;;4.93;3.55;;;;;;;3.06;100.00;98693.03;4903852;29;20047;-68
2021/11/30 11:39:31;;;;;;;3.78;2.63;;;;;;;3.04;100.00;98689.75;4917241;29;20477;-67
2021/11/30 11:42:16;;;;;;;5.03;3.10;;;;;;;3.08;100.00;98716.75;4903984;29;20107;-68
2021/11/30 11:45:01;;;;;;;4.03;2.65;;;;;;;3.05;100.00;98681.16;4917881;29;20106;-68
2021/11/30 11:47:45;;;;;;;10.35;4.75;;;;;;;3.05;100.00;98709.28;4918365;29;20058;-67
2021/11/30 11:50:48;;;;;;;8.60;5.28;;;;;;;3.13;100.00;98699.41;4917100;29;20054;-68
2021/11/30 11:53:37;;;;;;;5.93;2.80;;;;;;;3.08;100.00;98686.06;4917147;29;20123;-68
2021/11/30 11:56:30;;;;;;;4.53;2.83;;;;;;;2.96;100.00;98705.59;4917802;29;20059;-68
2021/11/30 11:59:17;;;;;;;6.57;4.45;;;;;;;3.01;100.00;98677.16;4916714;29;20063;-67
2021/11/30 12:02:20;;;;;;;5.35;2.95;;;;;;;2.93;100.00;98713.44;4917010;29;20111;-67
2021/11/30 12:05:07;;;;;;;5.55;3.58;;;;;;;2.96;100.00;98690.25;4916698;29;20131;-68
2021/11/30 12:08:01;;;;;;;3.75;2.67;;;;;;;2.95;100.00;98710.78;4916799;29;20067;-68
2021/11/30 12:10:46;;;;;;;3.92;2.78;;;;;;;2.95;100.00;98721.00;4916639;29;20087;-67
2021/11/30 12:13:30;;;;;;;2.25;1.95;;;;;;;2.93;100.00;98702.41;4916812;29;20046;-67
2021/11/30 12:16:14;;;;;;;5.15;2.78;;;;;;;2.92;100.00;98668.31;4916484;29;20055;-68
2021/11/30 12:19:28;;;;;;;3.67;2.22;;;;;;;3.01;100.00;98664.34;4916687;29;20470;-67
2021/11/30 12:22:34;;;;;;;5.78;3.40;;;;;;;3.06;100.00;98670.81;4916530;29;20051;-68
2021/11/30 12:25:29;;;;;;;4.35;2.92;;;;;;;3.07;100.00;98680.16;4917072;29;20131;-67
2021/11/30 12:28:38;;;;;;;5.70;3.13;;;;;;;3.18;100.00;98687.97;4917430;29;20382;-68
2021/11/30 12:31:31;;;;;;;6.20;2.55;;;;;;;3.15;100.00;98661.75;4916086;29;20126;-68
2021/11/30 12:34:39;;;;;;;2.55;1.95;;;;;;;3.17;100.00;98662.47;4902893;29;20095;-67
2021/11/30 12:37:26;;;;;;;6.63;3.05;;;;;;;3.22;100.00;98675.78;4902856;29;20135;-68
2021/11/30 12:40:15;;;;;;;4.70;3.60;;;;;;;3.36;100.00;98650.94;4916205;29;20493;-67
2021/11/30 12:43:11;;;;;;;4.22;3.00;;;;;;;3.35;100.00;98663.84;4916033;29;20107;-66
2021/11/30 12:45:57;;;;;;;4.22;3.08;;;;;;;3.40;100.00;98662.63;4917137;29;20491;-67
2021/11/30 12:48:41;;;;;;;3.22;2.47;;;;;;;3.45;100.00;98675.94;4916010;29;20202;-66
2021/11/30 12:51:34;;;;;;;3.70;2.80;;;;;;;3.45;100.00;98675.94;4915854;29;20054;-67
2021/11/30 12:54:23;;;;;;;2.63;1.65;;;;;;;3.49;100.00;98681.66;4915636;29;20047;-67
2021/11/30 12:57:09;;;;;;;2.42;2.22;;;;;;;3.54;100.00;98710.34;4915643;29;20454;-68
2021/11/30 13:00:14;;;;;;;4.65;2.55;;;;;;;3.59;100.00;98672.47;4915910;29;20055;-66
2021/11/30 13:03:21;;;;;;;2.83;2.50;;;;;;;3.64;100.00;98683.25;4913366;29;20055;-64
2021/11/30 13:06:05;;;;;;;1.60;1.35;;;;;;;3.59;100.00;98675.03;4915506;29;20094;-68
2021/11/30 13:09:02;;;;;;;;;;;;;;;3.70;100.00;98677.69;4915827;29;20422;-68
2021/11/30 13:11:46;;;;;;;6.15;1.48;;;;;;;3.65;100.00;98652.41;4916946;29;20404;-67
2021/11/30 13:14:30;;;;;;;3.83;2.42;;;;;;;3.76;100.00;98649.94;4915529;29;20051;-67
2021/11/30 13:17:14;;;;;;;;;;;;;;;3.69;100.00;98665.81;4915815;29;20055;-67
2021/11/30 13:19:58;;;;;;;2.88;1.88;;;;;;;3.69;100.00;98658.16;4902382;29;20017;-67
2021/11/30 13:22:46;;;;;;;;;;;;;;;3.72;100.00;98650.25;4916150;29;20582;-67